createdAt,value
2018-07-21T00:01:37.546Z,45.50
2018-07-21T00:04:06.243Z,45.50
2018-07-21T00:06:34.613Z,45.40
2018-07-21T00:09:03.023Z,45.50
2018-07-21T00:11:31.398Z,45.50
2018-07-21T00:13:59.775Z,45.60
2018-07-21T00:16:28.135Z,45.60
2018-07-21T00:18:56.480Z,45.70
2018-07-21T00:21:24.916Z,45.80
2018-07-21T00:23:53.247Z,45.80
2018-07-21T00:26:21.658Z,45.70
2018-07-21T00:31:18.095Z,45.90
2018-07-21T00:33:46.424Z,45.90
2018-07-21T00:36:14.784Z,45.90
2018-07-21T00:38:43.163Z,45.90
2018-07-21T00:41:11.536Z,45.90
2018-07-21T00:43:39.869Z,46.00
2018-07-21T00:46:08.232Z,46.00
2018-07-21T00:48:36.576Z,46.10
2018-07-21T00:51:05.012Z,46.40
2018-07-21T00:53:33.363Z,46.10
2018-07-21T00:56:02.954Z,46.10
2018-07-21T00:58:31.823Z,46.20
2018-07-21T01:01:00.624Z,46.80
2018-07-21T01:03:28.969Z,46.30
2018-07-21T01:05:57.413Z,46.30
2018-07-21T01:08:25.768Z,46.40
2018-07-21T01:10:54.141Z,46.50
2018-07-21T01:15:50.544Z,46.50
2018-07-21T01:18:18.901Z,46.60
2018-07-21T01:20:47.306Z,46.60
2018-07-21T01:23:15.651Z,46.60
2018-07-21T01:25:44.005Z,46.60
2018-07-21T01:30:40.412Z,46.60
2018-07-21T01:33:08.796Z,46.60
2018-07-21T01:35:37.115Z,46.60
2018-07-21T01:40:33.632Z,46.60
2018-07-21T01:43:01.996Z,46.70
2018-07-21T01:45:30.351Z,46.60
2018-07-21T01:47:58.711Z,46.70
2018-07-21T01:50:27.054Z,46.80
2018-07-21T01:52:55.510Z,46.80
2018-07-21T01:55:23.844Z,46.90
2018-07-21T01:57:52.223Z,47.00
2018-07-21T02:00:20.591Z,47.20
2018-07-21T02:02:48.953Z,47.10
2018-07-21T02:05:17.357Z,47.20
2018-07-21T02:10:13.801Z,47.20
2018-07-21T02:12:42.155Z,47.20
2018-07-21T02:15:10.474Z,47.20
2018-07-21T02:20:07.119Z,47.30
2018-07-21T02:22:35.471Z,47.30
2018-07-21T02:25:03.855Z,47.40
2018-07-21T02:27:32.376Z,47.40
2018-07-21T02:32:28.836Z,47.50
2018-07-21T02:34:57.163Z,47.60
2018-07-21T02:37:25.504Z,47.60
2018-07-21T02:39:53.828Z,47.80
2018-07-21T02:42:22.181Z,47.90
2018-07-21T02:44:50.521Z,47.80
2018-07-21T02:52:14.987Z,47.80
2018-07-21T02:54:43.308Z,47.80
2018-07-21T02:57:11.679Z,47.90
2018-07-21T02:59:40.028Z,48.10
2018-07-21T03:02:08.373Z,47.90
2018-07-21T03:04:36.697Z,48.00
2018-07-21T03:07:05.024Z,48.00
2018-07-21T03:09:33.380Z,48.00
2018-07-21T03:12:01.728Z,48.10
2018-07-21T03:14:30.081Z,48.00
2018-07-21T03:16:58.400Z,48.10
2018-07-21T03:19:26.741Z,48.10
2018-07-21T03:21:55.076Z,48.10
2018-07-21T03:24:23.420Z,48.00
2018-07-21T03:26:51.752Z,48.10
2018-07-21T03:29:20.483Z,48.50
2018-07-21T03:31:48.796Z,48.10
2018-07-21T03:34:17.140Z,48.20
2018-07-21T03:36:45.452Z,48.10
2018-07-21T03:39:13.808Z,48.30
2018-07-21T03:41:42.123Z,48.20
2018-07-21T03:44:10.462Z,48.10
2018-07-21T03:46:38.784Z,48.50
2018-07-21T03:51:35.187Z,48.30
2018-07-21T03:54:03.560Z,48.20
2018-07-21T03:56:31.908Z,48.40
2018-07-21T03:59:00.283Z,48.20
2018-07-21T04:06:24.748Z,48.40
2018-07-21T04:08:53.150Z,48.40
2018-07-21T04:11:21.453Z,48.40
2018-07-21T04:13:49.795Z,48.40
2018-07-21T04:16:18.122Z,48.30
2018-07-21T04:18:46.471Z,48.40
2018-07-21T04:21:14.815Z,48.40
2018-07-21T04:23:43.163Z,48.40
2018-07-21T04:26:11.487Z,48.40
2018-07-21T04:28:39.827Z,48.30
2018-07-21T04:31:08.255Z,48.30
2018-07-21T04:33:36.608Z,48.40
2018-07-21T04:36:04.935Z,48.40
2018-07-21T04:38:33.276Z,48.40
2018-07-21T04:41:01.619Z,48.10
2018-07-21T04:43:30.011Z,48.40
2018-07-21T04:45:58.340Z,48.30
2018-07-21T04:48:26.683Z,48.30
2018-07-21T04:50:55.020Z,48.50
2018-07-21T04:53:23.387Z,48.30
2018-07-21T04:55:51.714Z,48.40
2018-07-21T04:58:20.099Z,48.50
2018-07-21T05:00:48.506Z,48.50
2018-07-21T05:03:16.779Z,48.40
2018-07-21T05:05:45.125Z,48.40
2018-07-21T05:08:13.468Z,48.40
2018-07-21T05:10:41.812Z,48.40
2018-07-21T05:13:10.151Z,48.60
2018-07-21T05:15:38.505Z,48.60
2018-07-21T05:20:34.965Z,48.70
2018-07-21T05:25:31.459Z,48.70
2018-07-21T05:27:59.787Z,48.80
2018-07-21T05:30:28.388Z,48.70
2018-07-21T05:32:56.703Z,48.80
2018-07-21T05:35:25.047Z,48.90
2018-07-21T05:42:49.847Z,48.90
2018-07-21T05:45:18.195Z,48.80
2018-07-21T05:47:46.534Z,48.70
2018-07-21T05:52:42.964Z,48.70
2018-07-21T05:55:11.347Z,48.70
2018-07-21T05:57:39.691Z,48.70
2018-07-21T06:00:10.700Z,48.80
2018-07-21T06:02:39.018Z,48.80
2018-07-21T06:05:10.238Z,48.70
2018-07-21T06:07:40.704Z,48.70
2018-07-21T06:10:09.215Z,48.90
2018-07-21T06:12:37.588Z,48.90
2018-07-21T06:15:06.219Z,49.10
2018-07-21T06:17:34.571Z,48.70
2018-07-21T06:22:31.827Z,49.00
2018-07-21T06:25:00.174Z,48.80
2018-07-21T06:27:28.491Z,48.70
2018-07-21T06:29:56.864Z,48.90
2018-07-21T06:32:25.179Z,48.90
2018-07-21T06:34:53.522Z,48.90
2018-07-21T06:37:21.847Z,48.90
2018-07-21T06:39:50.188Z,49.00
2018-07-21T06:42:18.543Z,48.80
2018-07-21T06:44:46.884Z,49.00
2018-07-21T06:47:15.246Z,49.20
2018-07-21T06:49:43.618Z,48.90
2018-07-21T06:52:11.927Z,49.10
2018-07-21T06:54:40.278Z,49.30
2018-07-21T06:57:08.655Z,49.20
2018-07-21T07:04:33.099Z,48.60
2018-07-21T07:07:01.456Z,48.30
2018-07-21T07:09:29.774Z,48.30
2018-07-21T07:11:58.117Z,48.10
2018-07-21T07:16:54.516Z,48.00
2018-07-21T07:19:22.827Z,47.90
2018-07-21T07:21:51.187Z,47.90
2018-07-21T07:24:19.507Z,47.70
2018-07-21T07:26:47.927Z,47.50
2018-07-21T07:29:16.261Z,47.20
2018-07-21T07:31:44.715Z,47.10
2018-07-21T07:34:13.027Z,47.00
2018-07-21T07:36:41.396Z,46.70
2018-07-21T07:41:39.280Z,46.40
2018-07-21T07:44:07.957Z,46.50
2018-07-21T07:49:04.509Z,46.40
2018-07-21T07:51:32.931Z,46.00
2018-07-21T07:54:01.252Z,46.10
2018-07-21T07:56:29.615Z,46.00
2018-07-21T07:58:58.223Z,46.10
2018-07-21T08:01:26.651Z,46.10
2018-07-21T08:03:55.005Z,46.10
2018-07-21T08:06:23.404Z,45.80
2018-07-21T08:08:51.749Z,45.90
2018-07-21T08:11:20.126Z,45.80
2018-07-21T08:13:48.475Z,45.90
2018-07-21T08:16:16.951Z,45.90
2018-07-21T08:18:45.307Z,46.00
2018-07-21T08:21:13.811Z,45.60
2018-07-21T08:23:42.171Z,45.60
2018-07-21T08:26:10.586Z,45.60
2018-07-21T08:28:38.922Z,45.40
2018-07-21T08:31:07.291Z,45.20
2018-07-21T08:36:03.837Z,45.10
2018-07-21T08:38:32.216Z,45.00
2018-07-21T08:43:28.763Z,44.70
2018-07-21T08:48:25.262Z,45.10
2018-07-21T08:50:53.693Z,44.40
2018-07-21T08:53:22.559Z,44.10
2018-07-21T09:00:47.380Z,43.90
2018-07-21T09:03:15.784Z,43.70
2018-07-21T09:05:44.261Z,43.60
2018-07-21T09:08:12.621Z,43.50
2018-07-21T09:10:41.010Z,43.30
2018-07-21T09:13:09.480Z,43.40
2018-07-21T09:15:37.880Z,42.90
2018-07-21T09:18:06.316Z,43.30
2018-07-21T09:20:34.660Z,43.10
2018-07-21T09:23:03.089Z,43.00
2018-07-21T09:25:31.496Z,42.80
2018-07-21T09:27:59.884Z,42.60
2018-07-21T09:30:28.292Z,42.60
2018-07-21T09:35:24.761Z,42.20
2018-07-21T09:37:58.686Z,42.20
2018-07-21T09:40:27.058Z,42.10
2018-07-21T09:42:55.448Z,42.20
2018-07-21T09:45:23.868Z,42.10
2018-07-21T09:47:52.219Z,41.80
2018-07-21T09:50:20.552Z,42.00
2018-07-21T09:52:48.911Z,41.90
2018-07-21T09:55:17.223Z,41.80
2018-07-21T09:57:45.686Z,41.60
2018-07-21T10:00:18.235Z,41.80
2018-07-21T10:02:46.580Z,41.60
2018-07-21T10:05:14.895Z,41.60
2018-07-21T10:07:43.235Z,41.50
2018-07-21T10:10:11.582Z,41.40
2018-07-21T10:12:39.951Z,41.40
2018-07-21T10:15:08.285Z,41.40
2018-07-21T10:17:36.683Z,41.50
2018-07-21T10:20:05.227Z,41.30
2018-07-21T10:22:33.599Z,41.20
2018-07-21T10:25:07.253Z,41.10
2018-07-21T10:27:41.982Z,41.20
2018-07-21T10:30:10.407Z,41.10
2018-07-21T10:32:38.900Z,41.00
2018-07-21T10:35:07.297Z,40.90
2018-07-21T10:37:35.720Z,40.90
2018-07-21T10:40:04.108Z,40.80
2018-07-21T10:42:33.705Z,40.80
2018-07-21T10:45:02.079Z,40.90
2018-07-21T10:47:30.389Z,41.00
2018-07-21T10:49:58.715Z,41.10
2018-07-21T10:52:27.039Z,41.80
2018-07-21T10:54:55.386Z,41.20
2018-07-21T10:57:23.739Z,41.20
2018-07-21T10:59:52.099Z,41.40
2018-07-21T11:02:20.437Z,41.30
2018-07-21T11:04:48.783Z,41.20
2018-07-21T11:07:17.114Z,41.30
2018-07-21T11:09:45.459Z,41.50
2018-07-21T11:12:13.778Z,41.20
2018-07-21T11:14:42.140Z,41.40
2018-07-21T11:17:10.522Z,41.60
2018-07-21T11:19:38.879Z,41.20
2018-07-21T11:22:07.209Z,41.20
2018-07-21T11:24:35.572Z,41.30
2018-07-21T11:27:03.911Z,41.30
2018-07-21T11:29:32.271Z,41.40
2018-07-21T11:32:00.630Z,41.40
2018-07-21T11:39:25.166Z,41.70
2018-07-21T11:41:53.480Z,41.80
2018-07-21T11:44:21.932Z,41.80
2018-07-21T11:46:50.284Z,41.70
2018-07-21T11:49:18.639Z,41.90
2018-07-21T11:51:46.971Z,42.00
2018-07-21T11:54:15.328Z,41.90
2018-07-21T11:59:11.828Z,41.70
2018-07-21T12:01:41.637Z,41.70
2018-07-21T12:09:07.749Z,41.10
2018-07-21T12:11:36.135Z,41.10
2018-07-21T12:14:04.493Z,40.90
2018-07-21T12:16:32.832Z,41.20
2018-07-21T12:19:01.205Z,40.70
2018-07-21T12:21:29.556Z,40.60
2018-07-21T12:28:54.127Z,40.20
2018-07-21T12:31:22.468Z,40.10
2018-07-21T12:38:47.047Z,40.00
2018-07-21T12:41:15.403Z,40.10
2018-07-21T12:43:43.737Z,39.80
2018-07-21T12:46:12.092Z,39.90
2018-07-21T12:48:40.611Z,39.90
2018-07-21T12:53:37.066Z,39.90
2018-07-21T12:58:33.925Z,39.90
2018-07-21T13:03:30.343Z,39.70
2018-07-21T13:05:58.709Z,39.80
2018-07-21T13:08:27.232Z,39.60
2018-07-21T13:10:55.622Z,39.60
2018-07-21T13:15:52.098Z,40.00
2018-07-21T13:18:20.448Z,40.10
2018-07-21T13:23:16.884Z,39.80
2018-07-21T13:25:45.247Z,39.30
2018-07-21T13:28:13.583Z,39.40
2018-07-21T13:30:41.935Z,39.80
2018-07-21T13:33:10.318Z,39.80
2018-07-21T13:35:38.657Z,40.10
2018-07-21T13:38:07.011Z,39.80
2018-07-21T13:40:35.372Z,40.00
2018-07-21T13:43:03.734Z,40.20
2018-07-21T13:48:00.151Z,40.00
2018-07-21T13:50:28.570Z,40.00
2018-07-21T13:52:56.957Z,40.00
2018-07-21T13:55:25.328Z,40.10
2018-07-21T14:02:49.856Z,40.60
2018-07-21T14:07:46.289Z,40.80
2018-07-21T14:10:14.649Z,41.00
2018-07-21T14:12:43.019Z,40.80
2018-07-21T14:15:11.362Z,41.00
2018-07-21T14:17:40.524Z,41.20
2018-07-21T14:20:08.895Z,41.10
2018-07-21T14:22:37.259Z,41.00
2018-07-21T14:25:05.571Z,41.10
2018-07-21T14:34:58.175Z,41.10
2018-07-21T14:39:54.595Z,41.30
2018-07-21T14:42:22.964Z,41.30
2018-07-21T14:44:51.303Z,41.10
2018-07-21T14:47:19.651Z,41.30
2018-07-21T14:49:47.979Z,41.20
2018-07-21T14:52:16.335Z,41.40
2018-07-21T14:54:44.975Z,41.40
2018-07-21T14:57:13.228Z,41.50
2018-07-21T14:59:41.579Z,41.50
2018-07-21T15:02:09.927Z,41.80
2018-07-21T15:04:38.255Z,41.50
2018-07-21T15:07:06.624Z,41.50
2018-07-21T15:09:34.956Z,41.50
2018-07-21T15:12:03.352Z,41.60
2018-07-21T15:16:59.748Z,41.30
2018-07-21T15:19:28.071Z,41.20
2018-07-21T15:21:56.440Z,41.20
2018-07-21T15:24:24.792Z,41.30
2018-07-21T15:26:53.136Z,41.30
2018-07-21T15:29:21.462Z,41.50
2018-07-21T15:31:49.812Z,41.50
2018-07-21T15:34:18.144Z,41.50
2018-07-21T15:36:46.512Z,41.50
2018-07-21T15:39:14.861Z,41.40
2018-07-21T15:41:43.224Z,41.70
2018-07-21T15:44:11.552Z,41.60
2018-07-21T15:46:39.908Z,41.30
2018-07-21T15:49:08.234Z,41.30
2018-07-21T15:51:36.583Z,41.40
2018-07-21T15:54:04.921Z,41.50
2018-07-21T15:56:33.263Z,41.40
2018-07-21T15:59:01.624Z,41.00
2018-07-21T16:01:29.984Z,40.80
2018-07-21T16:03:58.335Z,40.40
2018-07-21T16:06:26.708Z,40.30
2018-07-21T16:08:55.059Z,40.10
2018-07-21T16:11:23.371Z,39.90
2018-07-21T16:13:51.733Z,39.80
2018-07-21T16:18:48.178Z,39.30
2018-07-21T16:21:16.491Z,39.00
2018-07-21T16:23:44.835Z,38.30
2018-07-21T16:28:41.239Z,37.50
2018-07-21T16:31:09.548Z,37.30
2018-07-21T16:33:37.886Z,37.10
2018-07-21T16:36:06.220Z,36.70
2018-07-21T16:43:30.727Z,35.00
2018-07-21T16:45:59.076Z,34.30
2018-07-21T16:48:27.430Z,34.10
2018-07-21T16:50:55.765Z,34.60
2018-07-21T16:53:24.116Z,33.80
2018-07-21T16:55:52.479Z,33.70
2018-07-21T16:58:20.851Z,33.80
2018-07-21T17:00:49.201Z,33.60
2018-07-21T17:05:45.631Z,33.20
2018-07-21T17:08:14.112Z,33.30
2018-07-21T17:10:42.551Z,33.00
2018-07-21T17:13:10.918Z,32.60
2018-07-21T17:15:39.259Z,32.30
2018-07-21T17:18:07.611Z,32.20
2018-07-21T17:20:35.959Z,32.30
2018-07-21T17:23:04.805Z,32.70
2018-07-21T17:28:01.353Z,33.50
2018-07-21T17:30:30.164Z,33.60
2018-07-21T17:32:58.498Z,33.80
2018-07-21T17:35:26.827Z,34.10
2018-07-21T17:37:55.193Z,34.30
2018-07-21T17:40:23.540Z,34.50
2018-07-21T17:42:52.043Z,34.90
2018-07-21T17:45:20.375Z,35.00
2018-07-21T17:47:48.711Z,35.10
2018-07-21T17:50:17.058Z,35.20
2018-07-21T17:52:45.386Z,35.40
2018-07-21T18:00:09.896Z,35.30
2018-07-21T18:02:38.272Z,35.40
2018-07-21T18:05:06.871Z,34.90
2018-07-21T18:07:35.189Z,35.00
2018-07-21T18:10:03.559Z,35.20
2018-07-21T18:12:31.912Z,35.40
2018-07-21T18:19:56.423Z,36.20
2018-07-21T18:22:24.749Z,36.40
2018-07-21T18:24:53.106Z,37.20
2018-07-21T18:27:21.465Z,37.20
2018-07-21T18:34:46.107Z,37.70
2018-07-21T18:37:14.506Z,38.60
2018-07-21T18:39:42.919Z,38.10
2018-07-21T18:42:11.250Z,38.40
2018-07-21T18:47:07.716Z,39.20
2018-07-21T18:49:36.061Z,39.20
2018-07-21T18:52:04.498Z,39.30
2018-07-21T18:54:32.855Z,39.60
2018-07-21T18:57:01.237Z,39.80
2018-07-21T18:59:29.607Z,39.80
2018-07-21T19:01:58.025Z,40.00
2018-07-21T19:04:26.463Z,40.20
2018-07-21T19:06:54.781Z,40.40
2018-07-21T19:09:23.157Z,40.50
2018-07-21T19:11:56.758Z,40.80
2018-07-21T19:14:25.140Z,41.00
2018-07-21T19:16:53.487Z,41.10
2018-07-21T19:21:49.895Z,41.80
2018-07-21T19:24:18.242Z,41.90
2018-07-21T19:26:51.879Z,42.20
2018-07-21T19:29:20.599Z,42.50
2018-07-21T19:34:22.635Z,42.90
2018-07-21T19:36:50.987Z,43.20
2018-07-21T19:39:19.331Z,43.40
2018-07-21T19:41:52.960Z,43.60
2018-07-21T19:44:21.295Z,43.80
2018-07-21T19:46:49.655Z,44.50
2018-07-21T19:49:17.999Z,44.90
2018-07-21T19:51:46.379Z,45.00
2018-07-21T19:54:14.711Z,45.40
2018-07-21T19:56:43.116Z,45.60
2018-07-21T19:59:11.446Z,45.80
2018-07-21T20:01:39.795Z,46.00
2018-07-21T20:04:08.166Z,46.30
2018-07-21T20:06:36.582Z,46.50
2018-07-21T20:09:06.864Z,47.00
2018-07-21T20:11:35.221Z,46.90
2018-07-21T20:14:03.592Z,47.20
2018-07-21T20:16:31.947Z,47.50
2018-07-21T20:19:00.255Z,47.70
2018-07-21T20:21:28.600Z,47.80
2018-07-21T20:23:56.960Z,47.90
2018-07-21T20:26:25.280Z,48.10
2018-07-21T20:28:53.627Z,48.30
2018-07-21T20:31:22.171Z,48.50
2018-07-21T20:33:50.516Z,48.60
2018-07-21T20:38:46.926Z,48.80
2018-07-21T20:41:16.458Z,48.90
2018-07-21T20:43:44.917Z,49.10
2018-07-21T20:46:13.368Z,49.60
2018-07-21T20:48:42.032Z,49.70
2018-07-21T20:51:10.355Z,49.90
2018-07-21T21:01:02.975Z,51.10
2018-07-21T21:03:31.340Z,51.40
2018-07-21T21:05:59.654Z,51.60
2018-07-21T21:08:27.998Z,52.00
2018-07-21T21:10:56.320Z,52.10
2018-07-21T21:13:24.672Z,52.40
2018-07-21T21:15:53.012Z,52.70
2018-07-21T21:18:21.384Z,52.80
2018-07-21T21:20:49.748Z,52.70
2018-07-21T21:23:18.560Z,53.40
2018-07-21T21:25:46.919Z,53.50
2018-07-21T21:28:15.235Z,53.80
2018-07-21T21:30:43.589Z,54.00
2018-07-21T21:33:11.967Z,54.20
2018-07-21T21:35:40.334Z,54.40
2018-07-21T21:38:08.671Z,54.50
2018-07-21T21:40:37.020Z,54.70
2018-07-21T21:43:05.564Z,54.80
2018-07-21T21:45:33.984Z,55.10
2018-07-21T21:50:30.424Z,55.40
2018-07-21T21:52:58.754Z,55.70
2018-07-21T21:55:27.186Z,55.70
2018-07-21T21:57:55.539Z,55.90
2018-07-21T22:00:23.912Z,55.90
2018-07-21T22:02:52.240Z,55.70
2018-07-21T22:05:20.591Z,55.50
2018-07-21T22:07:48.904Z,55.70
2018-07-21T22:12:45.416Z,55.70
2018-07-21T22:15:20.384Z,55.70
2018-07-21T22:20:17.107Z,55.90
2018-07-21T22:22:45.812Z,56.00
2018-07-21T22:25:14.151Z,56.10
2018-07-21T22:27:42.564Z,56.10
2018-07-21T22:30:15.952Z,56.20
2018-07-21T22:32:44.276Z,56.30
2018-07-21T22:35:12.591Z,56.40
2018-07-21T22:37:41.077Z,56.30
2018-07-21T22:40:09.484Z,56.30
2018-07-21T22:42:37.826Z,56.60
2018-07-21T22:45:06.195Z,57.30
2018-07-21T22:47:34.556Z,57.50
2018-07-21T22:50:02.896Z,57.60
2018-07-21T22:52:31.248Z,57.80
2018-07-21T22:54:59.563Z,57.90
2018-07-21T22:57:28.015Z,58.20
2018-07-21T22:59:56.384Z,58.20
2018-07-21T23:02:25.902Z,58.50
2018-07-21T23:04:54.239Z,58.50
2018-07-21T23:07:22.586Z,58.70
2018-07-21T23:09:50.916Z,59.00
2018-07-21T23:12:21.518Z,59.10
2018-07-21T23:17:17.943Z,59.40
2018-07-21T23:19:46.264Z,59.60
2018-07-21T23:22:14.725Z,59.80
2018-07-21T23:27:11.288Z,60.20
2018-07-21T23:29:39.606Z,60.40
2018-07-21T23:32:08.062Z,60.40
2018-07-21T23:34:36.385Z,60.50
2018-07-21T23:37:04.835Z,60.60
2018-07-21T23:39:33.165Z,60.70
2018-07-21T23:42:01.526Z,60.70
2018-07-21T23:44:29.854Z,61.60
2018-07-21T23:46:58.195Z,61.10
2018-07-21T23:49:26.510Z,61.00
2018-07-21T23:51:54.855Z,61.00
2018-07-21T23:54:23.171Z,61.60
2018-07-21T23:56:51.518Z,61.80
